PAL106 RPLL-RPMR
Flight info
| Callsign | PAL106 |
|---|---|
| Flight time | 1h 28m |
| Altitude | 34000 |
| Route | VERDE2P VERDE A461 SAJ W3 IOO B472 COT W19 MELBY MELBY3R |
| Aircraft | A320/M-SDE3FGHIRWY/LB1 |
Departure
| Time | 2026-04-17 10:44 |
|---|---|
| Airport | Ninoy Aquino International Airport (RPLL) |
Arrival
| Time | 2026-04-17 12:12 |
|---|---|
| Airport | General Santos International Airport (RPMR) |
| Time | Latitude | Longitude | Altitude | Speed | Heading |
|---|---|---|---|---|---|
| 2026-04-17 10:22 | 14.50881 | 121.01370 | 69 ft | 0 kts | 330° |
| 2026-04-17 10:35 | 14.50870 | 121.01377 | 59 ft | 2 kts | 330° |
| 2026-04-17 10:35 | 14.50857 | 121.01384 | 64 ft | 2 kts | 329° |
| 2026-04-17 10:35 | 14.50845 | 121.01392 | 65 ft | 2 kts | 327° |
| 2026-04-17 10:35 | 14.50842 | 121.01394 | 66 ft | 2 kts | 323° |
| 2026-04-17 10:36 | 14.50833 | 121.01408 | 69 ft | 2 kts | 308° |
| 2026-04-17 10:36 | 14.50819 | 121.01417 | 60 ft | 2 kts | 3° |
| 2026-04-17 10:36 | 14.50805 | 121.01412 | 64 ft | 1 kts | 47° |
| 2026-04-17 10:36 | 14.50802 | 121.01409 | 63 ft | 0 kts | 54° |
| 2026-04-17 10:38 | 14.50806 | 121.01415 | 69 ft | 6 kts | 58° |
| 2026-04-17 10:38 | 14.50850 | 121.01495 | 65 ft | 18 kts | 60° |
| 2026-04-17 10:38 | 14.50915 | 121.01612 | 63 ft | 20 kts | 66° |
| 2026-04-17 10:39 | 14.50883 | 121.01702 | 65 ft | 12 kts | 84° |
| 2026-04-17 10:39 | 14.50933 | 121.01793 | 68 ft | 13 kts | 60° |
| 2026-04-17 10:39 | 14.51002 | 121.01918 | 67 ft | 26 kts | 61° |
| 2026-04-17 10:39 | 14.51095 | 121.02084 | 67 ft | 24 kts | 60° |
| 2026-04-17 10:40 | 14.51175 | 121.02233 | 65 ft | 24 kts | 63° |
| 2026-04-17 10:40 | 14.51223 | 121.02314 | 70 ft | 10 kts | 59° |
| 2026-04-17 10:40 | 14.51256 | 121.02373 | 66 ft | 9 kts | 60° |
| 2026-04-17 10:40 | 14.51285 | 121.02425 | 67 ft | 8 kts | 61° |
| 2026-04-17 10:41 | 14.51308 | 121.02469 | 65 ft | 6 kts | 61° |
| 2026-04-17 10:41 | 14.51333 | 121.02514 | 69 ft | 10 kts | 60° |
| 2026-04-17 10:41 | 14.51383 | 121.02603 | 61 ft | 18 kts | 60° |
| 2026-04-17 10:41 | 14.51453 | 121.02729 | 65 ft | 21 kts | 60° |
| 2026-04-17 10:42 | 14.51496 | 121.02809 | 67 ft | 17 kts | 76° |
| 2026-04-17 10:42 | 14.51450 | 121.02868 | 66 ft | 12 kts | 153° |
| 2026-04-17 10:42 | 14.51361 | 121.02842 | 63 ft | 3 kts | 238° |
| 2026-04-17 10:42 | 14.51358 | 121.02837 | 61 ft | 3 kts | 238° |
| 2026-04-17 10:43 | 14.51298 | 121.02733 | 63 ft | 45 kts | 239° |
| 2026-04-17 10:43 | 14.51034 | 121.02254 | 66 ft | 106 kts | 240° |
| 2026-04-17 10:43 | 14.50754 | 121.01749 | 69 ft | 139 kts | 240° |
| 2026-04-17 10:43 | 14.50038 | 121.00427 | 360 ft | 169 kts | 242° |
| 2026-04-17 10:44 | 14.49485 | 120.99302 | 841 ft | 175 kts | 242° |
| 2026-04-17 10:44 | 14.48886 | 120.98222 | 1395 ft | 176 kts | 238° |
| 2026-04-17 10:44 | 14.48460 | 120.97483 | 1760 ft | 179 kts | 237° |
| 2026-04-17 10:44 | 14.47796 | 120.96337 | 2153 ft | 194 kts | 238° |
| 2026-04-17 10:45 | 14.46856 | 120.94702 | 2639 ft | 216 kts | 238° |
| 2026-04-17 10:45 | 14.46326 | 120.93772 | 2895 ft | 229 kts | 238° |
| 2026-04-17 10:45 | 14.45542 | 120.92386 | 3331 ft | 245 kts | 239° |
| 2026-04-17 10:45 | 14.44283 | 120.90338 | 3974 ft | 265 kts | 227° |
| 2026-04-17 10:46 | 14.43364 | 120.89491 | 4416 ft | 269 kts | 213° |
| 2026-04-17 10:46 | 14.41665 | 120.88675 | 5177 ft | 272 kts | 193° |
| 2026-04-17 10:46 | 14.39784 | 120.88514 | 5968 ft | 273 kts | 172° |
| 2026-04-17 10:46 | 14.37893 | 120.88818 | 6718 ft | 277 kts | 169° |
| 2026-04-17 10:47 | 14.35977 | 120.89141 | 7440 ft | 281 kts | 169° |
| 2026-04-17 10:47 | 14.34028 | 120.89466 | 8157 ft | 286 kts | 169° |
| 2026-04-17 10:47 | 14.32051 | 120.89797 | 8860 ft | 290 kts | 169° |
| 2026-04-17 10:47 | 14.30042 | 120.90131 | 9553 ft | 295 kts | 169° |
| 2026-04-17 10:48 | 14.27995 | 120.90467 | 10200 ft | 300 kts | 169° |
| 2026-04-17 10:48 | 14.25881 | 120.90815 | 10567 ft | 315 kts | 169° |
| 2026-04-17 10:48 | 14.23658 | 120.91182 | 10872 ft | 332 kts | 169° |
| 2026-04-17 10:48 | 14.21328 | 120.91568 | 11244 ft | 344 kts | 169° |
| 2026-04-17 10:49 | 14.18946 | 120.91960 | 11835 ft | 349 kts | 169° |
| 2026-04-17 10:49 | 14.16537 | 120.92353 | 12462 ft | 352 kts | 169° |
| 2026-04-17 10:49 | 14.14134 | 120.92746 | 13057 ft | 356 kts | 169° |
| 2026-04-17 10:49 | 14.11676 | 120.93149 | 13656 ft | 359 kts | 169° |
| 2026-04-17 10:50 | 14.09186 | 120.93559 | 14179 ft | 363 kts | 169° |
| 2026-04-17 10:50 | 14.06684 | 120.93971 | 14665 ft | 367 kts | 169° |
| 2026-04-17 10:50 | 14.04516 | 120.94328 | 14842 ft | 368 kts | 169° |
| 2026-04-17 10:50 | 14.01991 | 120.94743 | 15011 ft | 367 kts | 169° |
| 2026-04-17 10:51 | 13.99447 | 120.95161 | 15483 ft | 371 kts | 169° |
| 2026-04-17 10:51 | 13.96887 | 120.95582 | 15997 ft | 375 kts | 169° |
| 2026-04-17 10:51 | 13.94332 | 120.96004 | 16493 ft | 378 kts | 169° |
| 2026-04-17 10:51 | 13.91725 | 120.96432 | 16989 ft | 381 kts | 169° |
| 2026-04-17 10:52 | 13.89096 | 120.96859 | 17494 ft | 384 kts | 170° |
| 2026-04-17 10:52 | 13.86447 | 120.97289 | 17987 ft | 387 kts | 170° |
| 2026-04-17 10:52 | 13.83764 | 120.97723 | 18437 ft | 390 kts | 170° |
| 2026-04-17 10:52 | 13.81068 | 120.98162 | 18871 ft | 393 kts | 170° |
| 2026-04-17 10:53 | 13.78360 | 120.98605 | 19329 ft | 395 kts | 170° |
| 2026-04-17 10:53 | 13.75633 | 120.99052 | 19776 ft | 397 kts | 170° |
| 2026-04-17 10:53 | 13.72899 | 120.99500 | 20233 ft | 399 kts | 170° |
| 2026-04-17 10:53 | 13.70147 | 120.99950 | 20683 ft | 401 kts | 170° |
| 2026-04-17 10:54 | 13.67380 | 121.00402 | 21119 ft | 404 kts | 170° |
| 2026-04-17 10:54 | 13.64631 | 121.00848 | 21554 ft | 406 kts | 170° |
| 2026-04-17 10:54 | 13.61825 | 121.01303 | 21995 ft | 408 kts | 171° |
| 2026-04-17 10:54 | 13.59014 | 121.01759 | 22433 ft | 411 kts | 171° |
| 2026-04-17 10:55 | 13.56180 | 121.02218 | 22872 ft | 413 kts | 171° |
| 2026-04-17 10:55 | 13.53335 | 121.02678 | 23307 ft | 415 kts | 171° |
| 2026-04-17 10:55 | 13.50475 | 121.03108 | 23682 ft | 417 kts | 175° |
| 2026-04-17 10:55 | 13.47573 | 121.03200 | 24031 ft | 418 kts | 179° |
| 2026-04-17 10:56 | 13.44644 | 121.03226 | 24373 ft | 420 kts | 179° |
| 2026-04-17 10:56 | 13.41720 | 121.03254 | 24705 ft | 422 kts | 179° |
| 2026-04-17 10:56 | 13.38805 | 121.03283 | 25023 ft | 424 kts | 179° |
| 2026-04-17 10:56 | 13.35849 | 121.03310 | 25341 ft | 426 kts | 179° |
| 2026-04-17 10:57 | 13.32886 | 121.03340 | 25662 ft | 427 kts | 179° |
| 2026-04-17 10:57 | 13.29901 | 121.03371 | 25968 ft | 429 kts | 179° |
| 2026-04-17 10:57 | 13.26901 | 121.03402 | 26271 ft | 431 kts | 179° |
| 2026-04-17 10:57 | 13.23896 | 121.03430 | 26572 ft | 433 kts | 179° |
| 2026-04-17 10:58 | 13.20879 | 121.03460 | 26864 ft | 435 kts | 179° |
| 2026-04-17 10:58 | 13.17851 | 121.03490 | 27154 ft | 436 kts | 179° |
| 2026-04-17 10:58 | 13.14810 | 121.03520 | 27428 ft | 438 kts | 179° |
| 2026-04-17 10:58 | 13.11756 | 121.03550 | 27705 ft | 440 kts | 179° |
| 2026-04-17 10:59 | 13.08684 | 121.03580 | 27975 ft | 442 kts | 179° |
| 2026-04-17 10:59 | 13.05608 | 121.03613 | 28238 ft | 443 kts | 179° |
| 2026-04-17 10:59 | 13.02519 | 121.03648 | 28506 ft | 445 kts | 179° |
| 2026-04-17 10:59 | 12.99414 | 121.03681 | 28762 ft | 447 kts | 179° |
| 2026-04-17 11:00 | 12.96297 | 121.03711 | 29013 ft | 448 kts | 179° |
| 2026-04-17 11:00 | 12.93170 | 121.03737 | 29257 ft | 450 kts | 179° |
| 2026-04-17 11:00 | 12.90025 | 121.03764 | 29504 ft | 452 kts | 179° |
| 2026-04-17 11:00 | 12.86877 | 121.03795 | 29735 ft | 453 kts | 179° |
| 2026-04-17 11:01 | 12.83756 | 121.03830 | 29961 ft | 455 kts | 179° |
| 2026-04-17 11:01 | 12.80582 | 121.03867 | 30154 ft | 457 kts | 179° |
| 2026-04-17 11:01 | 12.77395 | 121.03903 | 30340 ft | 458 kts | 179° |
| 2026-04-17 11:01 | 12.74192 | 121.03938 | 30531 ft | 460 kts | 179° |
| 2026-04-17 11:02 | 12.70987 | 121.03967 | 30701 ft | 461 kts | 179° |
| 2026-04-17 11:02 | 12.67770 | 121.03997 | 30876 ft | 463 kts | 179° |
| 2026-04-17 11:02 | 12.64551 | 121.04029 | 31049 ft | 464 kts | 179° |
| 2026-04-17 11:02 | 12.61317 | 121.04062 | 31221 ft | 465 kts | 179° |
| 2026-04-17 11:03 | 12.58082 | 121.04093 | 31464 ft | 464 kts | 180° |
| 2026-04-17 11:03 | 12.54852 | 121.04120 | 31714 ft | 463 kts | 180° |
| 2026-04-17 11:03 | 12.51630 | 121.04147 | 31961 ft | 463 kts | 180° |
| 2026-04-17 11:03 | 12.48449 | 121.04174 | 32198 ft | 462 kts | 180° |
| 2026-04-17 11:04 | 12.45223 | 121.04205 | 32443 ft | 462 kts | 180° |
| 2026-04-17 11:04 | 12.42013 | 121.04267 | 32691 ft | 461 kts | 176° |
| 2026-04-17 11:04 | 12.38851 | 121.04770 | 32953 ft | 461 kts | 165° |
| 2026-04-17 11:04 | 12.35824 | 121.05849 | 33197 ft | 460 kts | 155° |
| 2026-04-17 11:05 | 12.33039 | 121.07457 | 33440 ft | 460 kts | 145° |
| 2026-04-17 11:05 | 12.30562 | 121.09536 | 33682 ft | 460 kts | 137° |
| 2026-04-17 11:05 | 12.28226 | 121.11781 | 33901 ft | 460 kts | 137° |
| 2026-04-17 11:05 | 12.25892 | 121.14015 | 34104 ft | 460 kts | 137° |
| 2026-04-17 11:06 | 12.23552 | 121.16250 | 34308 ft | 460 kts | 137° |
| 2026-04-17 11:06 | 12.21241 | 121.18459 | 34501 ft | 459 kts | 137° |
| 2026-04-17 11:06 | 12.18908 | 121.20689 | 34695 ft | 459 kts | 137° |
| 2026-04-17 11:06 | 12.16575 | 121.22923 | 34857 ft | 459 kts | 137° |
| 2026-04-17 11:07 | 12.14252 | 121.25146 | 34908 ft | 452 kts | 137° |
| 2026-04-17 11:07 | 12.09699 | 121.29493 | 34908 ft | 450 kts | 137° |
| 2026-04-17 11:08 | 12.05133 | 121.33853 | 34909 ft | 449 kts | 137° |
| 2026-04-17 11:08 | 12.00693 | 121.38090 | 34910 ft | 449 kts | 137° |
| 2026-04-17 11:09 | 11.96121 | 121.42453 | 34906 ft | 449 kts | 137° |
| 2026-04-17 11:09 | 11.91560 | 121.46805 | 34913 ft | 449 kts | 137° |
| 2026-04-17 11:10 | 11.84705 | 121.53341 | 34912 ft | 448 kts | 137° |
| 2026-04-17 11:10 | 11.80145 | 121.57687 | 34908 ft | 449 kts | 137° |
| 2026-04-17 11:11 | 11.75609 | 121.62006 | 34904 ft | 449 kts | 137° |
| 2026-04-17 11:11 | 11.71134 | 121.66261 | 34903 ft | 448 kts | 137° |
| 2026-04-17 11:12 | 11.66562 | 121.70605 | 34903 ft | 448 kts | 137° |
| 2026-04-17 11:12 | 11.62000 | 121.74941 | 34899 ft | 448 kts | 137° |
| 2026-04-17 11:13 | 11.57443 | 121.79271 | 34900 ft | 448 kts | 137° |
| 2026-04-17 11:13 | 11.52957 | 121.83532 | 34905 ft | 448 kts | 137° |
| 2026-04-17 11:14 | 11.48399 | 121.87859 | 34909 ft | 447 kts | 137° |
| 2026-04-17 11:14 | 11.43839 | 121.92181 | 34915 ft | 447 kts | 137° |
| 2026-04-17 11:15 | 11.39287 | 121.96500 | 34919 ft | 447 kts | 137° |
| 2026-04-17 11:15 | 11.34735 | 122.00815 | 34924 ft | 447 kts | 137° |
| 2026-04-17 11:16 | 11.30177 | 122.05134 | 34926 ft | 447 kts | 137° |
| 2026-04-17 11:16 | 11.25630 | 122.09447 | 34921 ft | 447 kts | 137° |
| 2026-04-17 11:17 | 11.21079 | 122.13763 | 34932 ft | 446 kts | 137° |
| 2026-04-17 11:17 | 11.16520 | 122.18065 | 34933 ft | 446 kts | 137° |
| 2026-04-17 11:18 | 11.11990 | 122.22339 | 34937 ft | 447 kts | 137° |
| 2026-04-17 11:18 | 11.07477 | 122.26614 | 34942 ft | 446 kts | 137° |
| 2026-04-17 11:19 | 11.02934 | 122.30906 | 34940 ft | 446 kts | 137° |
| 2026-04-17 11:19 | 10.98381 | 122.35209 | 34930 ft | 446 kts | 137° |
| 2026-04-17 11:20 | 10.93837 | 122.39501 | 34935 ft | 446 kts | 137° |
| 2026-04-17 11:20 | 10.89280 | 122.43793 | 34933 ft | 445 kts | 137° |
| 2026-04-17 11:21 | 10.84742 | 122.48013 | 34925 ft | 445 kts | 141° |
| 2026-04-17 11:21 | 10.79409 | 122.51170 | 34911 ft | 445 kts | 155° |
| 2026-04-17 11:22 | 10.73784 | 122.53805 | 34907 ft | 445 kts | 155° |
| 2026-04-17 11:22 | 10.68163 | 122.56473 | 34908 ft | 445 kts | 155° |
| 2026-04-17 11:23 | 10.62556 | 122.59139 | 34912 ft | 445 kts | 155° |
| 2026-04-17 11:23 | 10.56940 | 122.61797 | 34910 ft | 445 kts | 155° |
| 2026-04-17 11:24 | 10.51335 | 122.64450 | 34907 ft | 444 kts | 155° |
| 2026-04-17 11:24 | 10.45721 | 122.67099 | 34903 ft | 444 kts | 155° |
| 2026-04-17 11:25 | 10.40112 | 122.69741 | 34891 ft | 444 kts | 155° |
| 2026-04-17 11:25 | 10.34537 | 122.72369 | 34885 ft | 444 kts | 155° |
| 2026-04-17 11:26 | 10.28930 | 122.75020 | 34893 ft | 444 kts | 155° |
| 2026-04-17 11:26 | 10.23317 | 122.77670 | 34901 ft | 444 kts | 155° |
| 2026-04-17 11:27 | 10.17719 | 122.80309 | 34904 ft | 444 kts | 155° |
| 2026-04-17 11:27 | 10.12110 | 122.82948 | 34905 ft | 444 kts | 155° |
| 2026-04-17 11:28 | 10.06604 | 122.85535 | 34903 ft | 444 kts | 155° |
| 2026-04-17 11:28 | 10.01003 | 122.88177 | 34904 ft | 444 kts | 155° |
| 2026-04-17 11:29 | 9.95404 | 122.90806 | 34901 ft | 444 kts | 155° |
| 2026-04-17 11:29 | 9.89827 | 122.93420 | 34902 ft | 444 kts | 155° |
| 2026-04-17 11:30 | 9.84217 | 122.96064 | 34911 ft | 444 kts | 155° |
| 2026-04-17 11:30 | 9.78646 | 122.98691 | 34907 ft | 443 kts | 155° |
| 2026-04-17 11:31 | 9.73047 | 123.01323 | 34915 ft | 443 kts | 155° |
| 2026-04-17 11:31 | 9.67450 | 123.03950 | 34914 ft | 443 kts | 155° |
| 2026-04-17 11:32 | 9.61860 | 123.06577 | 34912 ft | 443 kts | 155° |
| 2026-04-17 11:32 | 9.56262 | 123.09203 | 34916 ft | 443 kts | 155° |
| 2026-04-17 11:33 | 9.50668 | 123.11824 | 34915 ft | 442 kts | 155° |
| 2026-04-17 11:33 | 9.46032 | 123.14005 | 34913 ft | 442 kts | 155° |
| 2026-04-17 11:34 | 9.40753 | 123.16487 | 34913 ft | 442 kts | 155° |
| 2026-04-17 11:34 | 9.35175 | 123.19104 | 34912 ft | 442 kts | 155° |
| 2026-04-17 11:35 | 9.29635 | 123.21699 | 34912 ft | 441 kts | 155° |
| 2026-04-17 11:35 | 9.24065 | 123.24313 | 34913 ft | 441 kts | 155° |
| 2026-04-17 11:36 | 9.18494 | 123.26919 | 34913 ft | 440 kts | 155° |
| 2026-04-17 11:36 | 9.12970 | 123.29510 | 34911 ft | 440 kts | 155° |
| 2026-04-17 11:37 | 9.07413 | 123.32107 | 34911 ft | 440 kts | 155° |
| 2026-04-17 11:37 | 9.01868 | 123.34711 | 34892 ft | 440 kts | 154° |
| 2026-04-17 11:38 | 8.96320 | 123.37314 | 34895 ft | 440 kts | 155° |
| 2026-04-17 11:38 | 8.90806 | 123.39885 | 34901 ft | 439 kts | 155° |
| 2026-04-17 11:39 | 8.85253 | 123.42477 | 34906 ft | 439 kts | 155° |
| 2026-04-17 11:39 | 8.79707 | 123.45068 | 34911 ft | 439 kts | 155° |
| 2026-04-17 11:40 | 8.74173 | 123.47658 | 34910 ft | 438 kts | 154° |
| 2026-04-17 11:40 | 8.68631 | 123.50249 | 34907 ft | 439 kts | 155° |
| 2026-04-17 11:41 | 8.63077 | 123.52840 | 34915 ft | 439 kts | 155° |
| 2026-04-17 11:41 | 8.57517 | 123.55435 | 34914 ft | 439 kts | 154° |
| 2026-04-17 11:42 | 8.51962 | 123.58034 | 34919 ft | 440 kts | 155° |
| 2026-04-17 11:42 | 8.46416 | 123.60625 | 34922 ft | 439 kts | 155° |
| 2026-04-17 11:43 | 8.40888 | 123.63201 | 34927 ft | 439 kts | 154° |
| 2026-04-17 11:43 | 8.35335 | 123.65786 | 34934 ft | 439 kts | 155° |
| 2026-04-17 11:44 | 8.29781 | 123.68375 | 34936 ft | 439 kts | 154° |
| 2026-04-17 11:44 | 8.24256 | 123.70954 | 34937 ft | 439 kts | 154° |
| 2026-04-17 11:45 | 8.18702 | 123.73544 | 34938 ft | 439 kts | 154° |
| 2026-04-17 11:45 | 8.13147 | 123.76127 | 34939 ft | 439 kts | 154° |
| 2026-04-17 11:46 | 8.07596 | 123.78707 | 34936 ft | 439 kts | 154° |
| 2026-04-17 11:46 | 8.02075 | 123.81280 | 34932 ft | 439 kts | 154° |
| 2026-04-17 11:47 | 7.96528 | 123.83866 | 34933 ft | 439 kts | 154° |
| 2026-04-17 11:47 | 7.90977 | 123.86445 | 34932 ft | 439 kts | 154° |
| 2026-04-17 11:48 | 7.85427 | 123.89023 | 34932 ft | 439 kts | 154° |
| 2026-04-17 11:48 | 7.79912 | 123.91592 | 34926 ft | 439 kts | 154° |
| 2026-04-17 11:49 | 7.74362 | 123.94173 | 34928 ft | 439 kts | 154° |
| 2026-04-17 11:49 | 7.68796 | 123.96755 | 34925 ft | 439 kts | 154° |
| 2026-04-17 11:50 | 7.63239 | 123.99336 | 34926 ft | 439 kts | 154° |
| 2026-04-17 11:50 | 7.57692 | 124.01917 | 34919 ft | 439 kts | 154° |
| 2026-04-17 11:51 | 7.54951 | 124.03194 | 34464 ft | 440 kts | 154° |
| 2026-04-17 11:51 | 7.52177 | 124.04483 | 33896 ft | 439 kts | 154° |
| 2026-04-17 11:51 | 7.49415 | 124.05764 | 33331 ft | 435 kts | 154° |
| 2026-04-17 11:51 | 7.46674 | 124.07032 | 32813 ft | 431 kts | 154° |
| 2026-04-17 11:52 | 7.43954 | 124.08290 | 32300 ft | 428 kts | 154° |
| 2026-04-17 11:52 | 7.41258 | 124.09538 | 31791 ft | 425 kts | 154° |
| 2026-04-17 11:52 | 7.38580 | 124.10779 | 31282 ft | 422 kts | 154° |
| 2026-04-17 11:52 | 7.35916 | 124.12013 | 30800 ft | 420 kts | 154° |
| 2026-04-17 11:53 | 7.33272 | 124.13241 | 30314 ft | 417 kts | 154° |
| 2026-04-17 11:53 | 7.30641 | 124.14466 | 29819 ft | 415 kts | 154° |
| 2026-04-17 11:53 | 7.28027 | 124.15682 | 29328 ft | 412 kts | 154° |
| 2026-04-17 11:53 | 7.25446 | 124.16880 | 28874 ft | 407 kts | 155° |
| 2026-04-17 11:54 | 7.22882 | 124.18068 | 28433 ft | 403 kts | 155° |
| 2026-04-17 11:54 | 7.20375 | 124.19229 | 28001 ft | 400 kts | 155° |
| 2026-04-17 11:54 | 7.17863 | 124.20402 | 27548 ft | 396 kts | 152° |
| 2026-04-17 11:54 | 7.15542 | 124.21877 | 27100 ft | 392 kts | 140° |
| 2026-04-17 11:55 | 7.13436 | 124.23597 | 26640 ft | 389 kts | 140° |
| 2026-04-17 11:55 | 7.11333 | 124.25312 | 26185 ft | 387 kts | 140° |
| 2026-04-17 11:55 | 7.09244 | 124.27009 | 25713 ft | 386 kts | 140° |
| 2026-04-17 11:55 | 7.07156 | 124.28701 | 25240 ft | 384 kts | 140° |
| 2026-04-17 11:56 | 7.05073 | 124.30387 | 24752 ft | 383 kts | 140° |
| 2026-04-17 11:56 | 7.02992 | 124.32069 | 24254 ft | 383 kts | 141° |
| 2026-04-17 11:56 | 7.00918 | 124.33747 | 23765 ft | 383 kts | 141° |
| 2026-04-17 11:56 | 6.98840 | 124.35429 | 23213 ft | 383 kts | 141° |
| 2026-04-17 11:57 | 6.96772 | 124.37106 | 22699 ft | 381 kts | 141° |
| 2026-04-17 11:57 | 6.94710 | 124.38778 | 22210 ft | 379 kts | 141° |
| 2026-04-17 11:57 | 6.92661 | 124.40441 | 21730 ft | 377 kts | 141° |
| 2026-04-17 11:57 | 6.90617 | 124.42098 | 21256 ft | 375 kts | 141° |
| 2026-04-17 11:58 | 6.88611 | 124.43722 | 20787 ft | 374 kts | 141° |
| 2026-04-17 11:58 | 6.86589 | 124.45357 | 20319 ft | 372 kts | 141° |
| 2026-04-17 11:58 | 6.84574 | 124.46985 | 19852 ft | 371 kts | 141° |
| 2026-04-17 11:58 | 6.82568 | 124.48608 | 19391 ft | 370 kts | 142° |
| 2026-04-17 11:59 | 6.80560 | 124.50233 | 18926 ft | 369 kts | 142° |
| 2026-04-17 11:59 | 6.78560 | 124.51851 | 18467 ft | 369 kts | 142° |
| 2026-04-17 11:59 | 6.76562 | 124.53468 | 17977 ft | 368 kts | 142° |
| 2026-04-17 11:59 | 6.74567 | 124.55079 | 17514 ft | 366 kts | 142° |
| 2026-04-17 12:00 | 6.72592 | 124.56676 | 17091 ft | 363 kts | 142° |
| 2026-04-17 12:00 | 6.70634 | 124.58259 | 16711 ft | 359 kts | 142° |
| 2026-04-17 12:00 | 6.68691 | 124.59833 | 16241 ft | 358 kts | 142° |
| 2026-04-17 12:00 | 6.66767 | 124.61388 | 15844 ft | 353 kts | 142° |
| 2026-04-17 12:01 | 6.64850 | 124.62895 | 15339 ft | 343 kts | 143° |
| 2026-04-17 12:01 | 6.62999 | 124.64305 | 14937 ft | 330 kts | 144° |
| 2026-04-17 12:01 | 6.61193 | 124.65662 | 14550 ft | 318 kts | 144° |
| 2026-04-17 12:01 | 6.59451 | 124.66966 | 14185 ft | 307 kts | 144° |
| 2026-04-17 12:02 | 6.57771 | 124.68231 | 13818 ft | 297 kts | 144° |
| 2026-04-17 12:02 | 6.56123 | 124.69476 | 13322 ft | 296 kts | 144° |
| 2026-04-17 12:02 | 6.54476 | 124.70723 | 12953 ft | 296 kts | 144° |
| 2026-04-17 12:02 | 6.52832 | 124.71967 | 12591 ft | 296 kts | 144° |
| 2026-04-17 12:03 | 6.51191 | 124.73209 | 12239 ft | 295 kts | 144° |
| 2026-04-17 12:03 | 6.49566 | 124.74438 | 11877 ft | 295 kts | 144° |
| 2026-04-17 12:03 | 6.47927 | 124.75677 | 11514 ft | 294 kts | 144° |
| 2026-04-17 12:03 | 6.46293 | 124.76913 | 11151 ft | 294 kts | 144° |
| 2026-04-17 12:04 | 6.44659 | 124.78150 | 10774 ft | 294 kts | 144° |
| 2026-04-17 12:04 | 6.43030 | 124.79383 | 10417 ft | 293 kts | 144° |
| 2026-04-17 12:04 | 6.41408 | 124.80610 | 10097 ft | 290 kts | 144° |
| 2026-04-17 12:04 | 6.39800 | 124.81832 | 9709 ft | 290 kts | 142° |
| 2026-04-17 12:05 | 6.38393 | 124.83282 | 9306 ft | 290 kts | 126° |
| 2026-04-17 12:05 | 6.37389 | 124.84956 | 8911 ft | 289 kts | 119° |
| 2026-04-17 12:05 | 6.36410 | 124.86730 | 8502 ft | 289 kts | 119° |
| 2026-04-17 12:05 | 6.35428 | 124.88489 | 8098 ft | 288 kts | 119° |
| 2026-04-17 12:06 | 6.34448 | 124.90238 | 7669 ft | 287 kts | 119° |
| 2026-04-17 12:06 | 6.33468 | 124.91989 | 7245 ft | 287 kts | 119° |
| 2026-04-17 12:06 | 6.32487 | 124.93736 | 6809 ft | 287 kts | 119° |
| 2026-04-17 12:06 | 6.31507 | 124.95482 | 6373 ft | 287 kts | 118° |
| 2026-04-17 12:07 | 6.30527 | 124.97232 | 5903 ft | 287 kts | 118° |
| 2026-04-17 12:07 | 6.29552 | 124.98972 | 5503 ft | 284 kts | 119° |
| 2026-04-17 12:07 | 6.28582 | 125.00705 | 5074 ft | 282 kts | 119° |
| 2026-04-17 12:07 | 6.27661 | 125.02351 | 4650 ft | 281 kts | 119° |
| 2026-04-17 12:08 | 6.26715 | 125.04044 | 4356 ft | 273 kts | 119° |
| 2026-04-17 12:08 | 6.25762 | 125.05654 | 4149 ft | 262 kts | 128° |
| 2026-04-17 12:08 | 6.24479 | 125.06840 | 4026 ft | 248 kts | 148° |
| 2026-04-17 12:08 | 6.22995 | 125.07487 | 3709 ft | 245 kts | 167° |
| 2026-04-17 12:09 | 6.21312 | 125.07715 | 3369 ft | 243 kts | 174° |
| 2026-04-17 12:09 | 6.19639 | 125.07910 | 3020 ft | 241 kts | 173° |
| 2026-04-17 12:09 | 6.17984 | 125.08112 | 2682 ft | 238 kts | 173° |
| 2026-04-17 12:09 | 6.16366 | 125.08314 | 2384 ft | 226 kts | 173° |
| 2026-04-17 12:10 | 6.14854 | 125.08503 | 2079 ft | 213 kts | 173° |
| 2026-04-17 12:10 | 6.13448 | 125.08676 | 2013 ft | 189 kts | 173° |
| 2026-04-17 12:10 | 6.12164 | 125.08835 | 1653 ft | 186 kts | 173° |
| 2026-04-17 12:10 | 6.10898 | 125.08993 | 1347 ft | 179 kts | 173° |
| 2026-04-17 12:11 | 6.09725 | 125.09138 | 1094 ft | 161 kts | 173° |
| 2026-04-17 12:11 | 6.08667 | 125.09267 | 872 ft | 146 kts | 173° |
| 2026-04-17 12:11 | 6.07679 | 125.09391 | 645 ft | 142 kts | 173° |
| 2026-04-17 12:12 | 6.05798 | 125.09622 | 514 ft | 118 kts | 172° |
| 2026-04-17 12:12 | 6.05286 | 125.09685 | 514 ft | 33 kts | 173° |
| 2026-04-17 12:12 | 6.05036 | 125.09712 | 515 ft | 34 kts | 174° |
| 2026-04-17 12:12 | 6.04820 | 125.09740 | 515 ft | 28 kts | 174° |
| 2026-04-17 12:13 | 6.04624 | 125.09761 | 514 ft | 29 kts | 174° |
| 2026-04-17 12:13 | 6.04502 | 125.09803 | 515 ft | 9 kts | 114° |
| 2026-04-17 12:13 | 6.04500 | 125.09832 | 515 ft | 1 kts | 86° |
| 2026-04-17 12:13 | 6.04509 | 125.09888 | 515 ft | 11 kts | 81° |
| 2026-04-17 12:14 | 6.04484 | 125.09943 | 514 ft | 8 kts | 154° |
| 2026-04-17 12:14 | 6.04435 | 125.09949 | 514 ft | 9 kts | 178° |
| 2026-04-17 12:14 | 6.04389 | 125.09887 | 514 ft | 16 kts | 264° |
| 2026-04-17 12:14 | 6.04427 | 125.09787 | 516 ft | 17 kts | 356° |
| 2026-04-17 12:15 | 6.04578 | 125.09770 | 515 ft | 26 kts | 353° |
| 2026-04-17 12:15 | 6.04786 | 125.09744 | 515 ft | 33 kts | 352° |
| 2026-04-17 12:15 | 6.05036 | 125.09712 | 515 ft | 39 kts | 354° |
| 2026-04-17 12:15 | 6.05284 | 125.09684 | 512 ft | 37 kts | 353° |
| 2026-04-17 12:16 | 6.05401 | 125.09699 | 515 ft | 6 kts | 66° |
| 2026-04-17 12:16 | 6.05400 | 125.09748 | 515 ft | 11 kts | 85° |
| 2026-04-17 12:16 | 6.05414 | 125.09855 | 514 ft | 18 kts | 83° |
| 2026-04-17 12:16 | 6.05465 | 125.09912 | 514 ft | 13 kts | 355° |
| 2026-04-17 12:17 | 6.05583 | 125.09896 | 514 ft | 21 kts | 353° |
| 2026-04-17 12:17 | 6.05637 | 125.09899 | 514 ft | 3 kts | 50° |
| 2026-04-17 12:17 | 6.05641 | 125.09939 | 514 ft | 10 kts | 84° |
| 2026-04-17 12:17 | 6.05644 | 125.09964 | 514 ft | 0 kts | 83° |
| 2026-04-17 12:18 | 6.05645 | 125.09965 | 514 ft | 0 kts | 82° |